Doagh, United Kingdom
Current Conditions -  °F | °C
As of 6:50 PM on Thursday 23 Oct 2014 (Local Time) from EGAA Reporting Station
Light Rain Light Rain  
Wind Chill: 55°   Ceiling: 1100
Heat Index: 55°   Visibility: 4mi
Dew Point: 54°   Wind: 21mph
Humidity: 94%   Direction: 270°W
Pressure: 29.77"   Gusts: NA
Location:  54.75°N, 6.08°W
Report Text: EGAA 231750Z 27018KT 7000 -RA FEW007 BKN011 BKN016 13/12 Q1008 RERA
Loading
Personal Weather Stations






























Interactive Weather Map New forecast layout! Learn more

10-Day Weather Forecast

Advertisements
Track Severe Weather on mobile